sensor_id;sensor_type;location;lat;lon;timestamp;pressure;altitude;pressure_sealevel;temperature;humidity
19624;BME280;9959;49.798;9.928;2023-10-09T00:00:58;100205.00;;;11.75;100.00
19624;BME280;9959;49.798;9.928;2023-10-09T00:03:32;100202.50;;;11.74;100.00
19624;BME280;9959;49.798;9.928;2023-10-09T00:05:59;100204.56;;;11.65;100.00
19624;BME280;9959;49.798;9.928;2023-10-09T00:08:28;100197.94;;;11.68;100.00
19624;BME280;9959;49.798;9.928;2023-10-09T00:11:00;100192.53;;;11.68;100.00
19624;BME280;9959;49.798;9.928;2023-10-09T00:13:40;100195.25;;;11.74;100.00
19624;BME280;9959;49.798;9.928;2023-10-09T00:16:19;100194.44;;;11.80;100.00
19624;BME280;9959;49.798;9.928;2023-10-09T00:19:03;100197.53;;;11.77;100.00
19624;BME280;9959;49.798;9.928;2023-10-09T00:21:52;100193.81;;;11.78;100.00
19624;BME280;9959;49.798;9.928;2023-10-09T00:24:22;100193.41;;;11.81;100.00
19624;BME280;9959;49.798;9.928;2023-10-09T00:26:53;100192.56;;;11.81;100.00
19624;BME280;9959;49.798;9.928;2023-10-09T00:29:23;100195.66;;;11.71;100.00
19624;BME280;9959;49.798;9.928;2023-10-09T00:31:53;100190.25;;;11.65;100.00
19624;BME280;9959;49.798;9.928;2023-10-09T00:34:40;100178.44;;;11.72;100.00
19624;BME280;9959;49.798;9.928;2023-10-09T00:37:10;100177.19;;;11.68;100.00
19624;BME280;9959;49.798;9.928;2023-10-09T00:39:43;100173.44;;;11.69;100.00
19624;BME280;9959;49.798;9.928;2023-10-09T00:42:11;100175.09;;;11.70;100.00
19624;BME280;9959;49.798;9.928;2023-10-09T00:44:49;100172.19;;;11.72;100.00
19624;BME280;9959;49.798;9.928;2023-10-09T00:47:17;100163.50;;;11.76;100.00
19624;BME280;9959;49.798;9.928;2023-10-09T00:49:58;100157.25;;;11.69;100.00
19624;BME280;9959;49.798;9.928;2023-10-09T00:52:33;100156.22;;;11.70;100.00
19624;BME280;9959;49.798;9.928;2023-10-09T00:55:07;100152.25;;;11.73;100.00
19624;BME280;9959;49.798;9.928;2023-10-09T00:57:43;100150.63;;;11.78;100.00
19624;BME280;9959;49.798;9.928;2023-10-09T01:00:17;100143.16;;;11.80;100.00
19624;BME280;9959;49.798;9.928;2023-10-09T01:03:02;100150.19;;;11.81;100.00
19624;BME280;9959;49.798;9.928;2023-10-09T01:05:46;100136.72;;;11.81;100.00
19624;BME280;9959;49.798;9.928;2023-10-09T01:08:25;100136.09;;;11.86;100.00
19624;BME280;9959;49.798;9.928;2023-10-09T01:11:14;100131.50;;;11.80;100.00
19624;BME280;9959;49.798;9.928;2023-10-09T01:13:56;100126.94;;;11.80;100.00
19624;BME280;9959;49.798;9.928;2023-10-09T01:16:43;100119.47;;;11.89;100.00
19624;BME280;9959;49.798;9.928;2023-10-09T01:19:10;100115.75;;;11.97;100.00
19624;BME280;9959;49.798;9.928;2023-10-09T01:21:47;100124.47;;;11.92;100.00
19624;BME280;9959;49.798;9.928;2023-10-09T01:24:15;100118.44;;;11.90;100.00
19624;BME280;9959;49.798;9.928;2023-10-09T01:26:43;100115.94;;;11.95;100.00
19624;BME280;9959;49.798;9.928;2023-10-09T01:29:15;100120.72;;;11.86;100.00
19624;BME280;9959;49.798;9.928;2023-10-09T01:31:51;100108.25;;;11.85;100.00
19624;BME280;9959;49.798;9.928;2023-10-09T01:34:25;100112.41;;;11.81;100.00
19624;BME280;9959;49.798;9.928;2023-10-09T01:37:08;100106.19;;;11.81;100.00
19624;BME280;9959;49.798;9.928;2023-10-09T01:39:48;100097.88;;;11.76;100.00
19624;BME280;9959;49.798;9.928;2023-10-09T01:42:15;100087.50;;;11.73;100.00
19624;BME280;9959;49.798;9.928;2023-10-09T01:44:57;100084.59;;;11.74;100.00
19624;BME280;9959;49.798;9.928;2023-10-09T01:47:43;100092.06;;;11.72;100.00
19624;BME280;9959;49.798;9.928;2023-10-09T01:50:19;100078.34;;;11.80;100.00
19624;BME280;9959;49.798;9.928;2023-10-09T01:52:51;100074.41;;;11.76;100.00
19624;BME280;9959;49.798;9.928;2023-10-09T01:55:19;100071.28;;;11.73;100.00
19624;BME280;9959;49.798;9.928;2023-10-09T01:58:09;100074.41;;;11.63;100.00
19624;BME280;9959;49.798;9.928;2023-10-09T02:00:51;100063.41;;;11.58;100.00
19624;BME280;9959;49.798;9.928;2023-10-09T02:03:23;100067.97;;;11.64;100.00
19624;BME280;9959;49.798;9.928;2023-10-09T02:05:52;100061.94;;;11.49;100.00
19624;BME280;9959;49.798;9.928;2023-10-09T02:08:29;100066.75;;;11.47;100.00
19624;BME280;9959;49.798;9.928;2023-10-09T02:10:56;100067.56;;;11.41;100.00
19624;BME280;9959;49.798;9.928;2023-10-09T02:13:23;100067.13;;;11.31;100.00
19624;BME280;9959;49.798;9.928;2023-10-09T02:15:57;100066.50;;;11.35;100.00
19624;BME280;9959;49.798;9.928;2023-10-09T02:18:42;100071.91;;;11.35;100.00
19624;BME280;9959;49.798;9.928;2023-10-09T02:21:22;100065.88;;;11.27;100.00
19624;BME280;9959;49.798;9.928;2023-10-09T02:24:02;100069.59;;;11.26;100.00
19624;BME280;9959;49.798;9.928;2023-10-09T02:26:34;100067.13;;;11.31;100.00
19624;BME280;9959;49.798;9.928;2023-10-09T02:29:06;100063.38;;;11.32;100.00
19624;BME280;9959;49.798;9.928;2023-10-09T02:31:39;100079.16;;;11.35;100.00
19624;BME280;9959;49.798;9.928;2023-10-09T02:34:18;100077.94;;;11.37;100.00
19624;BME280;9959;49.798;9.928;2023-10-09T02:36:49;100077.91;;;11.31;100.00
19624;BME280;9959;49.798;9.928;2023-10-09T02:39:16;100078.75;;;11.31;100.00
19624;BME280;9959;49.798;9.928;2023-10-09T02:41:53;100083.53;;;11.36;100.00
19624;BME280;9959;49.798;9.928;2023-10-09T02:44:39;100080.41;;;11.26;100.00
19624;BME280;9959;49.798;9.928;2023-10-09T02:47:07;100081.63;;;11.16;100.00
19624;BME280;9959;49.798;9.928;2023-10-09T02:49:44;100077.09;;;11.17;100.00
19624;BME280;9959;49.798;9.928;2023-10-09T02:52:15;100074.97;;;11.06;100.00
19624;BME280;9959;49.798;9.928;2023-10-09T02:54:46;100083.88;;;11.00;100.00
19624;BME280;9959;49.798;9.928;2023-10-09T02:57:19;100081.59;;;11.03;100.00
19624;BME280;9959;49.798;9.928;2023-10-09T02:59:50;100080.56;;;11.04;100.00
19624;BME280;9959;49.798;9.928;2023-10-09T03:02:18;100082.41;;;10.97;100.00
19624;BME280;9959;49.798;9.928;2023-10-09T03:04:45;100073.69;;;10.95;100.00
19624;BME280;9959;49.798;9.928;2023-10-09T03:07:12;100072.88;;;10.95;100.00
19624;BME280;9959;49.798;9.928;2023-10-09T03:09:40;100075.56;;;10.88;100.00
19624;BME280;9959;49.798;9.928;2023-10-09T03:12:07;100067.03;;;10.78;100.00
19624;BME280;9959;49.798;9.928;2023-10-09T03:14:40;100075.91;;;10.72;100.00
19624;BME280;9959;49.798;9.928;2023-10-09T03:17:08;100075.72;;;10.73;100.00
19624;BME280;9959;49.798;9.928;2023-10-09T03:19:40;100069.50;;;10.73;100.00
19624;BME280;9959;49.798;9.928;2023-10-09T03:22:08;100068.84;;;10.71;100.00
19624;BME280;9959;49.798;9.928;2023-10-09T03:24:39;100068.66;;;10.66;100.00
19624;BME280;9959;49.798;9.928;2023-10-09T03:27:13;100068.22;;;10.69;100.00
19624;BME280;9959;49.798;9.928;2023-10-09T03:29:40;100067.59;;;10.67;100.00
19624;BME280;9959;49.798;9.928;2023-10-09T03:32:15;100059.53;;;10.73;100.00
19624;BME280;9959;49.798;9.928;2023-10-09T03:34:42;100069.06;;;10.69;100.00
19624;BME280;9959;49.798;9.928;2023-10-09T03:37:11;100070.28;;;10.67;100.00
19624;BME280;9959;49.798;9.928;2023-10-09T03:39:49;100061.22;;;10.74;100.00
19624;BME280;9959;49.798;9.928;2023-10-09T03:42:21;100062.50;;;10.85;100.00
19624;BME280;9959;49.798;9.928;2023-10-09T03:44:49;100067.66;;;10.80;100.00
19624;BME280;9959;49.798;9.928;2023-10-09T03:47:20;100062.25;;;10.80;100.00
19624;BME280;9959;49.798;9.928;2023-10-09T03:49:51;100068.84;;;10.71;100.00
19624;BME280;9959;49.798;9.928;2023-10-09T03:52:21;100064.72;;;10.75;100.00
19624;BME280;9959;49.798;9.928;2023-10-09T03:54:53;100062.44;;;10.72;100.00
19624;BME280;9959;49.798;9.928;2023-10-09T03:57:20;100051.66;;;10.72;100.00
19624;BME280;9959;49.798;9.928;2023-10-09T03:59:47;100046.03;;;10.67;100.00
19624;BME280;9959;49.798;9.928;2023-10-09T04:02:15;100045.44;;;10.65;100.00
19624;BME280;9959;49.798;9.928;2023-10-09T04:04:43;100039.22;;;10.64;100.00
19624;BME280;9959;49.798;9.928;2023-10-09T04:07:15;100047.31;;;10.71;100.00
19624;BME280;9959;49.798;9.928;2023-10-09T04:09:45;100043.81;;;10.77;100.00
19624;BME280;9959;49.798;9.928;2023-10-09T04:12:15;100047.13;;;10.79;100.00
19624;BME280;9959;49.798;9.928;2023-10-09T04:14:52;100044.41;;;10.72;100.00
19624;BME280;9959;49.798;9.928;2023-10-09T04:17:24;100040.06;;;10.78;100.00
19624;BME280;9959;49.798;9.928;2023-10-09T04:20:03;100034.03;;;10.69;100.00
19624;BME280;9959;49.798;9.928;2023-10-09T04:22:46;100033.81;;;10.71;100.00
19624;BME280;9959;49.798;9.928;2023-10-09T04:25:31;100028.44;;;10.71;100.00
19624;BME280;9959;49.798;9.928;2023-10-09T04:28:12;100017.06;;;10.75;100.00
19624;BME280;9959;49.798;9.928;2023-10-09T04:30:42;100023.69;;;10.79;100.00
19624;BME280;9959;49.798;9.928;2023-10-09T04:33:14;100022.25;;;10.83;100.00
19624;BME280;9959;49.798;9.928;2023-10-09T04:36:08;100010.66;;;10.83;100.00
19624;BME280;9959;49.798;9.928;2023-10-09T04:38:49;100022.25;;;10.77;100.00
19624;BME280;9959;49.798;9.928;2023-10-09T04:41:26;100024.75;;;10.85;100.00
19624;BME280;9959;49.798;9.928;2023-10-09T04:44:00;100026.00;;;10.82;100.00
19624;BME280;9959;49.798;9.928;2023-10-09T04:46:47;100031.81;;;10.86;100.00
19624;BME280;9959;49.798;9.928;2023-10-09T04:49:33;100027.44;;;10.85;100.00
19624;BME280;9959;49.798;9.928;2023-10-09T04:52:28;100038.00;;;10.80;100.00
19624;BME280;9959;49.798;9.928;2023-10-09T04:54:56;100034.47;;;10.73;100.00
19624;BME280;9959;49.798;9.928;2023-10-09T04:57:39;100036.56;;;10.84;100.00
19624;BME280;9959;49.798;9.928;2023-10-09T05:00:15;100030.31;;;10.77;100.00
19624;BME280;9959;49.798;9.928;2023-10-09T05:02:53;100034.72;;;10.84;100.00
19624;BME280;9959;49.798;9.928;2023-10-09T05:05:39;100032.00;;;10.78;100.00
19624;BME280;9959;49.798;9.928;2023-10-09T05:11:02;100020.19;;;10.79;100.00
19624;BME280;9959;49.798;9.928;2023-10-09T05:13:36;100020.59;;;10.76;100.00
19624;BME280;9959;49.798;9.928;2023-10-09T05:16:17;100031.19;;;10.84;100.00
19624;BME280;9959;49.798;9.928;2023-10-09T05:18:59;100025.59;;;10.92;100.00
19624;BME280;9959;49.798;9.928;2023-10-09T05:21:32;100028.09;;;10.87;100.00
19624;BME280;9959;49.798;9.928;2023-10-09T05:24:01;100019.34;;;10.78;100.00
19624;BME280;9959;49.798;9.928;2023-10-09T05:26:49;100018.97;;;10.88;100.00
19624;BME280;9959;49.798;9.928;2023-10-09T05:29:23;100026.81;;;10.83;100.00
19624;BME280;9959;49.798;9.928;2023-10-09T05:32:05;100016.47;;;10.87;100.00
19624;BME280;9959;49.798;9.928;2023-10-09T05:34:42;100016.44;;;10.80;100.00
19624;BME280;9959;49.798;9.928;2023-10-09T05:37:29;100017.25;;;10.74;100.00
19624;BME280;9959;49.798;9.928;2023-10-09T05:40:03;100014.34;;;10.75;100.00
19624;BME280;9959;49.798;9.928;2023-10-09T05:42:44;100012.72;;;10.81;100.00
19624;BME280;9959;49.798;9.928;2023-10-09T05:45:13;100017.72;;;10.84;100.00
19624;BME280;9959;49.798;9.928;2023-10-09T05:47:58;100014.78;;;10.79;100.00
19624;BME280;9959;49.798;9.928;2023-10-09T05:50:32;100018.97;;;10.88;100.00
19624;BME280;9959;49.798;9.928;2023-10-09T05:53:02;100022.69;;;11.00;100.00
19624;BME280;9959;49.798;9.928;2023-10-09T05:55:30;100016.50;;;11.06;100.00
19624;BME280;9959;49.798;9.928;2023-10-09T05:58:15;100024.97;;;11.03;100.00
19624;BME280;9959;49.798;9.928;2023-10-09T06:01:04;100016.91;;;11.10;100.00
19624;BME280;9959;49.798;9.928;2023-10-09T06:03:49;100023.56;;;11.21;100.00
19624;BME280;9959;49.798;9.928;2023-10-09T06:06:21;100020.44;;;11.10;100.00
19624;BME280;9959;49.798;9.928;2023-10-09T06:09:05;100022.09;;;11.25;100.00
19624;BME280;9959;49.798;9.928;2023-10-09T06:11:43;100027.91;;;11.22;100.00
19624;BME280;9959;49.798;9.928;2023-10-09T06:14:17;100040.78;;;11.19;100.00
19624;BME280;9959;49.798;9.928;2023-10-09T06:16:53;100033.53;;;11.20;100.00
19624;BME280;9959;49.798;9.928;2023-10-09T06:19:40;100048.00;;;11.06;100.00
19624;BME280;9959;49.798;9.928;2023-10-09T06:22:11;100048.03;;;11.19;100.00
19624;BME280;9959;49.798;9.928;2023-10-09T06:24:56;100053.81;;;11.23;100.00
19624;BME280;9959;49.798;9.928;2023-10-09T06:27:26;100039.75;;;11.34;100.00
19624;BME280;9959;49.798;9.928;2023-10-09T06:30:13;100043.06;;;11.36;100.00
19624;BME280;9959;49.798;9.928;2023-10-09T06:32:45;100041.22;;;11.43;100.00
19624;BME280;9959;49.798;9.928;2023-10-09T06:35:25;100038.47;;;11.49;100.00
19624;BME280;9959;49.798;9.928;2023-10-09T06:37:59;100038.50;;;11.69;100.00
19624;BME280;9959;49.798;9.928;2023-10-09T06:40:34;100039.72;;;11.60;100.00
19624;BME280;9959;49.798;9.928;2023-10-09T06:43:20;100037.44;;;11.57;100.00
19624;BME280;9959;49.798;9.928;2023-10-09T06:45:57;100039.94;;;11.59;100.00
19624;BME280;9959;49.798;9.928;2023-10-09T06:48:25;100041.41;;;11.61;100.00
19624;BME280;9959;49.798;9.928;2023-10-09T06:51:04;100038.91;;;11.66;100.00
19624;BME280;9959;49.798;9.928;2023-10-09T06:53:56;100040.50;;;12.07;100.00
19624;BME280;9959;49.798;9.928;2023-10-09T06:56:31;100043.03;;;12.02;100.00
19624;BME280;9959;49.798;9.928;2023-10-09T06:59:02;100047.16;;;12.11;100.00
19624;BME280;9959;49.798;9.928;2023-10-09T07:01:48;100049.00;;;12.24;100.00
19624;BME280;9959;49.798;9.928;2023-10-09T07:04:35;100047.47;;;12.41;100.00
19624;BME280;9959;49.798;9.928;2023-10-09T07:07:03;100051.22;;;12.40;100.00
19624;BME280;9959;49.798;9.928;2023-10-09T07:09:36;100064.09;;;12.38;100.00
19624;BME280;9959;49.798;9.928;2023-10-09T07:12:10;100065.94;;;12.50;100.00
19624;BME280;9959;49.798;9.928;2023-10-09T07:14:47;100067.00;;;12.36;100.00
19624;BME280;9959;49.798;9.928;2023-10-09T07:17:14;100058.41;;;12.59;100.00
19624;BME280;9959;49.798;9.928;2023-10-09T07:19:53;100063.13;;;12.77;100.00
19624;BME280;9959;49.798;9.928;2023-10-09T07:22:21;100059.19;;;12.73;100.00
19624;BME280;9959;49.798;9.928;2023-10-09T07:24:52;100064.69;;;12.91;100.00
19624;BME280;9959;49.798;9.928;2023-10-09T07:27:40;100073.97;;;13.08;100.00
19624;BME280;9959;49.798;9.928;2023-10-09T07:30:13;100057.47;;;13.16;100.00
19624;BME280;9959;49.798;9.928;2023-10-09T07:33:02;100054.69;;;13.30;100.00
19624;BME280;9959;49.798;9.928;2023-10-09T07:35:44;100065.50;;;13.61;100.00
19624;BME280;9959;49.798;9.928;2023-10-09T07:38:19;100053.16;;;13.90;100.00
19624;BME280;9959;49.798;9.928;2023-10-09T07:40:48;100058.47;;;13.97;100.00
19624;BME280;9959;49.798;9.928;2023-10-09T07:43:34;100050.50;;;13.83;100.00
19624;BME280;9959;49.798;9.928;2023-10-09T07:46:22;100044.03;;;14.03;100.00
19624;BME280;9959;49.798;9.928;2023-10-09T07:49:19;100049.44;;;13.84;100.00
19624;BME280;9959;49.798;9.928;2023-10-09T07:51:52;100051.50;;;13.89;100.00
19624;BME280;9959;49.798;9.928;2023-10-09T07:54:22;100058.66;;;14.20;100.00
19624;BME280;9959;49.798;9.928;2023-10-09T07:57:03;100055.19;;;14.31;100.00
19624;BME280;9959;49.798;9.928;2023-10-09T07:59:43;100068.81;;;14.24;100.00
19624;BME280;9959;49.798;9.928;2023-10-09T08:02:28;100067.13;;;14.48;100.00
19624;BME280;9959;49.798;9.928;2023-10-09T08:05:01;100058.13;;;14.30;100.00
19624;BME280;9959;49.798;9.928;2023-10-09T08:07:48;100059.00;;;14.48;100.00
19624;BME280;9959;49.798;9.928;2023-10-09T08:10:33;100070.50;;;14.62;100.00
19624;BME280;9959;49.798;9.928;2023-10-09T08:13:01;100079.31;;;14.76;100.00
19624;BME280;9959;49.798;9.928;2023-10-09T08:15:48;100089.19;;;15.00;100.00
19624;BME280;9959;49.798;9.928;2023-10-09T08:18:23;100088.41;;;15.11;100.00
19624;BME280;9959;49.798;9.928;2023-10-09T08:20:56;100098.06;;;15.07;100.00
19624;BME280;9959;49.798;9.928;2023-10-09T08:23:28;100096.75;;;14.80;100.00
19624;BME280;9959;49.798;9.928;2023-10-09T08:26:16;100093.63;;;14.65;100.00
19624;BME280;9959;49.798;9.928;2023-10-09T08:28:56;100095.72;;;14.63;100.00
19624;BME280;9959;49.798;9.928;2023-10-09T08:31:41;100090.59;;;14.73;100.00
19624;BME280;9959;49.798;9.928;2023-10-09T08:34:23;100100.28;;;14.99;100.00
19624;BME280;9959;49.798;9.928;2023-10-09T08:36:56;100100.81;;;14.89;100.00
19624;BME280;9959;49.798;9.928;2023-10-09T08:39:23;100093.69;;;14.76;100.00
19624;BME280;9959;49.798;9.928;2023-10-09T08:41:54;100111.50;;;14.84;100.00
19624;BME280;9959;49.798;9.928;2023-10-09T08:44:25;100106.78;;;14.79;100.00
19624;BME280;9959;49.798;9.928;2023-10-09T08:46:59;100099.78;;;14.72;100.00
19624;BME280;9959;49.798;9.928;2023-10-09T08:49:26;100100.72;;;14.96;100.00
19624;BME280;9959;49.798;9.928;2023-10-09T08:51:55;100113.56;;;15.18;100.00
19624;BME280;9959;49.798;9.928;2023-10-09T08:54:22;100111.03;;;15.05;100.00
19624;BME280;9959;49.798;9.928;2023-10-09T08:56:49;100106.34;;;15.12;100.00
19624;BME280;9959;49.798;9.928;2023-10-09T08:59:18;100113.66;;;15.12;100.00
19624;BME280;9959;49.798;9.928;2023-10-09T09:01:50;100123.00;;;15.16;100.00
19624;BME280;9959;49.798;9.928;2023-10-09T09:04:39;100122.44;;;15.26;100.00
19624;BME280;9959;49.798;9.928;2023-10-09T09:07:25;100132.47;;;15.25;100.00
19624;BME280;9959;49.798;9.928;2023-10-09T09:09:57;100118.31;;;15.05;100.00
19624;BME280;9959;49.798;9.928;2023-10-09T09:12:24;100129.44;;;15.03;100.00
19624;BME280;9959;49.798;9.928;2023-10-09T09:14:51;100115.16;;;15.08;100.00
19624;BME280;9959;49.798;9.928;2023-10-09T09:17:30;100125.75;;;15.28;100.00
19624;BME280;9959;49.798;9.928;2023-10-09T09:19:59;100114.63;;;15.17;100.00
19624;BME280;9959;49.798;9.928;2023-10-09T09:22:26;100122.97;;;15.04;100.00
19624;BME280;9959;49.798;9.928;2023-10-09T09:24:59;100123.41;;;15.01;100.00
19624;BME280;9959;49.798;9.928;2023-10-09T09:27:46;100133.94;;;15.09;100.00
19624;BME280;9959;49.798;9.928;2023-10-09T09:30:25;100125.16;;;15.26;100.00
19624;BME280;9959;49.798;9.928;2023-10-09T09:33:16;100125.47;;;15.17;100.00
19624;BME280;9959;49.798;9.928;2023-10-09T09:36:02;100116.09;;;15.32;100.00
19624;BME280;9959;49.798;9.928;2023-10-09T09:38:35;100111.91;;;15.17;100.00
19624;BME280;9959;49.798;9.928;2023-10-09T09:41:09;100109.94;;;15.24;100.00
19624;BME280;9959;49.798;9.928;2023-10-09T09:43:37;100095.31;;;15.26;100.00
19624;BME280;9959;49.798;9.928;2023-10-09T09:46:09;100103.50;;;15.49;100.00
19624;BME280;9959;49.798;9.928;2023-10-09T09:48:38;100094.44;;;15.55;100.00
19624;BME280;9959;49.798;9.928;2023-10-09T09:51:15;100103.13;;;15.75;100.00
19624;BME280;9959;49.798;9.928;2023-10-09T09:53:44;100093.41;;;15.68;100.00
19624;BME280;9959;49.798;9.928;2023-10-09T09:56:17;100098.22;;;15.54;100.00
19624;BME280;9959;49.798;9.928;2023-10-09T09:58:50;100099.19;;;15.71;100.00
19624;BME280;9959;49.798;9.928;2023-10-09T10:01:25;100099.34;;;16.00;100.00
19624;BME280;9959;49.798;9.928;2023-10-09T10:04:01;100101.25;;;16.11;100.00
19624;BME280;9959;49.798;9.928;2023-10-09T10:06:31;100097.44;;;16.23;100.00
19624;BME280;9959;49.798;9.928;2023-10-09T10:09:00;100102.66;;;16.25;100.00
19624;BME280;9959;49.798;9.928;2023-10-09T10:14:14;100110.53;;;17.02;100.00
19624;BME280;9959;49.798;9.928;2023-10-09T10:17:03;100106.31;;;17.22;100.00
19624;BME280;9959;49.798;9.928;2023-10-09T10:22:45;100103.22;;;17.47;100.00
19624;BME280;9959;49.798;9.928;2023-10-09T10:28:22;100106.38;;;17.11;100.00
19624;BME280;9959;49.798;9.928;2023-10-09T10:31:02;100101.88;;;17.33;100.00
19624;BME280;9959;49.798;9.928;2023-10-09T10:36:22;100079.50;;;17.76;100.00
19624;BME280;9959;49.798;9.928;2023-10-09T10:39:07;100077.94;;;17.35;100.00
19624;BME280;9959;49.798;9.928;2023-10-09T10:41:38;100081.25;;;17.54;100.00
19624;BME280;9959;49.798;9.928;2023-10-09T10:44:25;100086.34;;;17.34;100.00
19624;BME280;9959;49.798;9.928;2023-10-09T10:47:08;100092.69;;;17.84;100.00
19624;BME280;9959;49.798;9.928;2023-10-09T10:49:52;100094.97;;;17.59;100.00
19624;BME280;9959;49.798;9.928;2023-10-09T10:52:26;100111.53;;;17.69;100.00
19624;BME280;9959;49.798;9.928;2023-10-09T10:55:12;100119.47;;;17.71;100.00
19624;BME280;9959;49.798;9.928;2023-10-09T10:58:18;100102.78;;;17.84;100.00
19624;BME280;9959;49.798;9.928;2023-10-09T11:01:04;100099.47;;;17.99;96.33
19624;BME280;9959;49.798;9.928;2023-10-09T11:03:42;100110.00;;;18.29;94.72
19624;BME280;9959;49.798;9.928;2023-10-09T11:06:29;100100.09;;;18.06;94.49
19624;BME280;9959;49.798;9.928;2023-10-09T11:09:05;100130.00;;;18.17;94.21
19624;BME280;9959;49.798;9.928;2023-10-09T11:11:36;100143.00;;;18.27;94.15
19624;BME280;9959;49.798;9.928;2023-10-09T11:14:10;100182.81;;;17.95;95.29
19624;BME280;9959;49.798;9.928;2023-10-09T11:16:42;100168.34;;;18.11;94.05
19624;BME280;9959;49.798;9.928;2023-10-09T11:19:13;100166.06;;;18.03;93.77
19624;BME280;9959;49.798;9.928;2023-10-09T11:21:59;100144.16;;;18.31;91.39
19624;BME280;9959;49.798;9.928;2023-10-09T11:24:36;100129.56;;;18.42;89.91
19624;BME280;9959;49.798;9.928;2023-10-09T11:27:05;100096.28;;;18.23;92.13
19624;BME280;9959;49.798;9.928;2023-10-09T11:29:33;100074.25;;;18.47;91.94
19624;BME280;9959;49.798;9.928;2023-10-09T11:32:20;100045.78;;;18.59;90.00
19624;BME280;9959;49.798;9.928;2023-10-09T11:35:13;100032.94;;;18.38;89.76
19624;BME280;9959;49.798;9.928;2023-10-09T11:37:57;100047.59;;;18.54;88.24
19624;BME280;9959;49.798;9.928;2023-10-09T11:40:33;100025.66;;;18.66;86.73
19624;BME280;9959;49.798;9.928;2023-10-09T11:43:19;99985.22;;;18.63;88.57
19624;BME280;9959;49.798;9.928;2023-10-09T11:46:12;99963.50;;;19.00;86.08
19624;BME280;9959;49.798;9.928;2023-10-09T11:48:40;99967.81;;;18.96;82.66
19624;BME280;9959;49.798;9.928;2023-10-09T11:51:35;99979.94;;;19.37;81.76
19624;BME280;9959;49.798;9.928;2023-10-09T11:54:05;99971.94;;;19.62;76.78
19624;BME280;9959;49.798;9.928;2023-10-09T11:56:35;99977.53;;;19.82;75.61
19624;BME280;9959;49.798;9.928;2023-10-09T11:59:02;99972.66;;;19.89;75.39
19624;BME280;9959;49.798;9.928;2023-10-09T12:01:32;99975.16;;;19.54;75.26
19624;BME280;9959;49.798;9.928;2023-10-09T12:04:02;99971.44;;;19.70;74.58
19624;BME280;9959;49.798;9.928;2023-10-09T12:06:29;99965.47;;;19.78;74.45
19624;BME280;9959;49.798;9.928;2023-10-09T12:08:59;99966.47;;;19.62;76.03
19624;BME280;9959;49.798;9.928;2023-10-09T12:11:26;99979.63;;;19.65;75.74
19624;BME280;9959;49.798;9.928;2023-10-09T12:13:56;99969.88;;;19.47;76.89
19624;BME280;9959;49.798;9.928;2023-10-09T12:16:24;99970.41;;;19.44;77.18
19624;BME280;9959;49.798;9.928;2023-10-09T12:18:55;99965.88;;;19.55;77.17
19624;BME280;9959;49.798;9.928;2023-10-09T12:21:23;99958.25;;;19.57;76.93
19624;BME280;9959;49.798;9.928;2023-10-09T12:23:50;99946.25;;;19.63;77.44
19624;BME280;9959;49.798;9.928;2023-10-09T12:26:17;99952.66;;;19.47;78.09
19624;BME280;9959;49.798;9.928;2023-10-09T12:28:45;99957.75;;;19.70;76.83
19624;BME280;9959;49.798;9.928;2023-10-09T12:31:13;99952.34;;;19.75;75.65
19624;BME280;9959;49.798;9.928;2023-10-09T12:33:47;99945.25;;;19.79;76.18
19624;BME280;9959;49.798;9.928;2023-10-09T12:36:16;99950.78;;;19.89;75.83
19624;BME280;9959;49.798;9.928;2023-10-09T12:38:49;99943.19;;;20.07;74.78
19624;BME280;9959;49.798;9.928;2023-10-09T12:41:19;99951.97;;;20.09;74.26
19624;BME280;9959;49.798;9.928;2023-10-09T12:43:53;99944.34;;;20.16;72.46
19624;BME280;9959;49.798;9.928;2023-10-09T12:46:21;99943.38;;;20.42;67.54
19624;BME280;9959;49.798;9.928;2023-10-09T12:48:52;99940.38;;;20.44;67.03
19624;BME280;9959;49.798;9.928;2023-10-09T12:51:22;99941.72;;;20.41;68.92
19624;BME280;9959;49.798;9.928;2023-10-09T12:53:56;99933.25;;;20.43;68.93
19624;BME280;9959;49.798;9.928;2023-10-09T12:56:24;99937.94;;;20.57;67.83
19624;BME280;9959;49.798;9.928;2023-10-09T12:59:00;99941.81;;;20.72;66.28
19624;BME280;9959;49.798;9.928;2023-10-09T13:01:28;99944.31;;;21.04;65.51
19624;BME280;9959;49.798;9.928;2023-10-09T13:04:21;99935.25;;;21.18;63.05
19624;BME280;9959;49.798;9.928;2023-10-09T13:06:49;99941.03;;;21.52;62.27
19624;BME280;9959;49.798;9.928;2023-10-09T13:09:20;99938.56;;;21.41;62.35
19624;BME280;9959;49.798;9.928;2023-10-09T13:12:05;99937.72;;;21.60;60.68
19624;BME280;9959;49.798;9.928;2023-10-09T13:14:34;99944.00;;;20.85;62.50
19624;BME280;9959;49.798;9.928;2023-10-09T13:17:02;99954.16;;;21.20;62.53
19624;BME280;9959;49.798;9.928;2023-10-09T13:19:37;99941.28;;;21.36;61.29
19624;BME280;9959;49.798;9.928;2023-10-09T13:22:04;99949.28;;;21.32;62.26
19624;BME280;9959;49.798;9.928;2023-10-09T13:24:40;99951.19;;;21.26;61.30
19624;BME280;9959;49.798;9.928;2023-10-09T13:27:08;99950.09;;;21.27;61.91
19624;BME280;9959;49.798;9.928;2023-10-09T13:29:39;99941.28;;;21.51;59.79
19624;BME280;9959;49.798;9.928;2023-10-09T13:32:07;99950.56;;;21.70;59.49
19624;BME280;9959;49.798;9.928;2023-10-09T13:34:41;99949.78;;;21.44;59.84
19624;BME280;9959;49.798;9.928;2023-10-09T13:37:11;99936.38;;;21.33;60.86
19624;BME280;9959;49.798;9.928;2023-10-09T13:39:41;99926.25;;;21.33;60.46
19624;BME280;9959;49.798;9.928;2023-10-09T13:42:19;99909.50;;;21.40;60.01
19624;BME280;9959;49.798;9.928;2023-10-09T13:44:52;99908.94;;;21.48;58.29
19624;BME280;9959;49.798;9.928;2023-10-09T13:47:22;99905.09;;;21.54;59.31
19624;BME280;9959;49.798;9.928;2023-10-09T13:49:54;99922.59;;;21.68;57.62